createdAt,value
2023-03-05T00:00:54.327Z,0.50
2023-03-05T00:03:21.020Z,0.60
2023-03-05T00:05:47.632Z,0.65
2023-03-05T00:08:14.175Z,0.60
2023-03-05T00:10:40.744Z,0.50
2023-03-05T00:13:07.853Z,0.50
2023-03-05T00:15:34.422Z,0.43
2023-03-05T00:18:00.972Z,0.50
2023-03-05T00:20:27.585Z,0.40
2023-03-05T00:22:54.134Z,0.60
2023-03-05T00:25:22.006Z,0.60
2023-03-05T00:27:48.583Z,0.47
2023-03-05T00:30:15.160Z,0.57
2023-03-05T00:32:41.771Z,0.50
2023-03-05T00:35:08.787Z,0.47
2023-03-05T00:37:35.386Z,0.52
2023-03-05T00:40:02.395Z,0.50
2023-03-05T00:42:29.029Z,0.60
2023-03-05T00:44:55.603Z,0.70
2023-03-05T00:47:22.180Z,0.50
2023-03-05T00:49:48.749Z,0.60
2023-03-05T00:52:15.321Z,0.50
2023-03-05T00:54:41.885Z,0.40
2023-03-05T00:57:08.438Z,0.57
2023-03-05T00:59:35.059Z,0.40
2023-03-05T01:02:01.730Z,0.50
2023-03-05T01:04:28.405Z,0.22
2023-03-05T01:06:54.979Z,0.50
2023-03-05T01:09:21.883Z,0.40
2023-03-05T01:11:48.463Z,0.40
2023-03-05T01:14:15.041Z,0.38
2023-03-05T01:16:41.617Z,0.50
2023-03-05T01:19:08.591Z,0.40
2023-03-05T01:21:36.060Z,0.50
2023-03-05T01:24:03.413Z,0.50
2023-03-05T01:26:30.188Z,0.50
2023-03-05T01:28:56.737Z,0.47
2023-03-05T01:31:23.997Z,0.40
2023-03-05T01:33:54.687Z,0.32
2023-03-05T01:36:24.916Z,0.30
2023-03-05T01:38:52.179Z,0.40
2023-03-05T01:41:19.663Z,0.47
2023-03-05T01:43:47.245Z,0.50
2023-03-05T01:46:35.031Z,0.47
2023-03-05T01:49:11.687Z,0.60
2023-03-05T01:51:59.759Z,0.35
2023-03-05T01:54:47.352Z,0.52
2023-03-05T01:57:17.534Z,0.30
2023-03-05T01:59:46.383Z,0.50
2023-03-05T02:02:13.225Z,0.40
2023-03-05T02:04:46.816Z,0.40
2023-03-05T02:07:14.351Z,0.57
2023-03-05T02:09:41.613Z,0.47
2023-03-05T02:12:09.558Z,0.30
2023-03-05T02:14:36.444Z,0.50
2023-03-05T02:17:03.102Z,0.30
2023-03-05T02:19:29.743Z,0.47
2023-03-05T02:21:56.307Z,0.40
2023-03-05T02:24:36.987Z,0.30
2023-03-05T02:27:05.160Z,0.40
2023-03-05T02:29:33.586Z,0.30
2023-03-05T02:32:00.929Z,0.38
2023-03-05T02:34:27.535Z,0.38
2023-03-05T02:36:55.548Z,0.50
2023-03-05T02:39:22.221Z,0.30
2023-03-05T02:41:48.779Z,0.40
2023-03-05T02:44:15.383Z,0.40
2023-03-05T02:46:41.980Z,0.38
2023-03-05T02:49:08.539Z,0.40
2023-03-05T02:51:35.142Z,0.30
2023-03-05T02:54:01.703Z,0.40
2023-03-05T02:56:28.283Z,0.50
2023-03-05T02:58:54.891Z,0.32
2023-03-05T03:01:21.527Z,0.50
2023-03-05T03:03:48.125Z,0.40
2023-03-05T03:06:14.820Z,0.30
2023-03-05T03:08:41.375Z,0.40
2023-03-05T03:11:09.355Z,0.43
2023-03-05T03:13:35.958Z,0.30
2023-03-05T03:16:04.795Z,0.20
2023-03-05T03:18:31.372Z,0.30
2023-03-05T03:20:58.106Z,0.28
2023-03-05T03:23:25.206Z,0.30
2023-03-05T03:25:51.852Z,0.50
2023-03-05T03:28:18.438Z,0.60
2023-03-05T03:30:45.088Z,0.40
2023-03-05T03:33:11.705Z,0.43
2023-03-05T03:35:38.502Z,0.45
2023-03-05T03:38:05.348Z,0.40
2023-03-05T03:40:32.065Z,0.40
2023-03-05T03:42:58.614Z,0.50
2023-03-05T03:45:25.163Z,0.45
2023-03-05T03:47:52.226Z,0.35
2023-03-05T03:50:18.860Z,0.40
2023-03-05T03:52:45.425Z,0.30
2023-03-05T03:55:11.986Z,0.30
2023-03-05T03:57:38.527Z,0.40
2023-03-05T04:00:10.095Z,0.40
2023-03-05T04:02:37.485Z,0.30
2023-03-05T04:05:04.533Z,0.30
2023-03-05T04:07:31.102Z,0.30
2023-03-05T04:09:57.703Z,0.40
2023-03-05T04:12:24.266Z,0.57
2023-03-05T04:14:50.840Z,0.30
2023-03-05T04:17:17.695Z,0.30
2023-03-05T04:19:44.508Z,0.40
2023-03-05T04:22:12.775Z,0.28
2023-03-05T04:24:39.383Z,0.28
2023-03-05T04:27:06.215Z,0.40
2023-03-05T04:29:33.786Z,0.20
2023-03-05T04:32:00.592Z,0.20
2023-03-05T04:34:27.178Z,0.40
2023-03-05T04:36:53.781Z,0.30
2023-03-05T04:39:21.008Z,0.30
2023-03-05T04:41:48.178Z,0.47
2023-03-05T04:44:15.060Z,0.30
2023-03-05T04:46:41.652Z,0.40
2023-03-05T04:49:08.293Z,0.40
2023-03-05T04:51:34.997Z,0.40
2023-03-05T04:54:01.574Z,0.40
2023-03-05T04:56:28.138Z,0.40
2023-03-05T04:58:54.720Z,0.20
2023-03-05T05:01:21.335Z,0.30
2023-03-05T05:03:48.038Z,0.60
2023-03-05T05:06:14.588Z,0.22
2023-03-05T05:08:41.161Z,0.30
2023-03-05T05:11:08.432Z,0.30
2023-03-05T05:13:35.514Z,0.40
2023-03-05T05:16:02.267Z,0.40
2023-03-05T05:18:28.888Z,0.20
2023-03-05T05:20:55.463Z,0.40
2023-03-05T05:23:22.030Z,0.30
2023-03-05T05:25:59.504Z,0.35
2023-03-05T05:28:26.113Z,0.40
2023-03-05T05:30:52.866Z,0.30
2023-03-05T05:33:20.143Z,0.20
2023-03-05T05:35:46.822Z,0.43
2023-03-05T05:38:13.535Z,0.28
2023-03-05T05:40:40.225Z,0.38
2023-03-05T05:43:07.323Z,0.38
2023-03-05T05:45:33.996Z,0.30
2023-03-05T05:48:00.658Z,0.30
2023-03-05T05:50:27.508Z,0.38
2023-03-05T05:52:54.088Z,0.32
2023-03-05T05:55:20.649Z,0.30
2023-03-05T05:57:47.284Z,0.40
2023-03-05T06:00:15.024Z,0.30
2023-03-05T06:02:42.485Z,0.30
2023-03-05T06:05:12.394Z,0.20
2023-03-05T06:07:39.077Z,0.30
2023-03-05T06:10:06.355Z,0.30
2023-03-05T06:12:32.911Z,0.35
2023-03-05T06:14:59.494Z,0.22
2023-03-05T06:17:30.587Z,0.32
2023-03-05T06:19:58.348Z,0.20
2023-03-05T06:22:25.021Z,0.20
2023-03-05T06:24:51.576Z,0.30
2023-03-05T06:27:18.171Z,0.38
2023-03-05T06:29:44.822Z,0.50
2023-03-05T06:32:11.392Z,0.40
2023-03-05T06:34:38.066Z,0.30
2023-03-05T06:37:04.638Z,0.22
2023-03-05T06:39:31.670Z,0.30
2023-03-05T06:41:58.287Z,0.30
2023-03-05T06:44:25.716Z,0.30
2023-03-05T06:46:52.383Z,0.45
2023-03-05T06:49:18.945Z,0.30
2023-03-05T06:51:45.522Z,0.30
2023-03-05T06:54:14.315Z,0.20
2023-03-05T06:56:43.469Z,0.30
2023-03-05T06:59:11.485Z,0.40
2023-03-05T07:01:38.218Z,0.30
2023-03-05T07:04:05.905Z,0.30
2023-03-05T07:06:33.815Z,0.20
2023-03-05T07:09:03.365Z,0.30
2023-03-05T07:11:30.495Z,0.40
2023-03-05T07:13:57.104Z,0.38
2023-03-05T07:16:27.188Z,0.30
2023-03-05T07:18:54.788Z,0.22
2023-03-05T07:21:23.688Z,0.20
2023-03-05T07:23:50.766Z,0.20
2023-03-05T07:26:17.637Z,0.20
2023-03-05T07:28:44.295Z,0.30
2023-03-05T07:31:16.158Z,0.28
2023-03-05T07:33:42.907Z,0.30
2023-03-05T07:36:10.194Z,0.38
2023-03-05T07:38:36.798Z,0.30
2023-03-05T07:41:05.214Z,0.20
2023-03-05T07:43:31.781Z,0.20
2023-03-05T07:45:58.430Z,0.20
2023-03-05T07:48:25.403Z,0.20
2023-03-05T07:51:04.257Z,0.30
2023-03-05T07:53:30.833Z,0.20
2023-03-05T07:55:57.529Z,0.10
2023-03-05T07:58:24.085Z,0.20
2023-03-05T08:00:50.861Z,0.30
2023-03-05T08:03:17.583Z,0.25
2023-03-05T08:05:44.254Z,0.10
2023-03-05T08:08:11.299Z,0.30
2023-03-05T08:10:38.552Z,0.30
2023-03-05T08:13:05.793Z,0.10
2023-03-05T08:15:32.387Z,0.15
2023-03-05T08:17:59.314Z,0.20
2023-03-05T08:20:26.327Z,0.20
2023-03-05T08:22:52.924Z,0.30
2023-03-05T08:25:19.487Z,0.30
2023-03-05T08:27:47.363Z,0.20
2023-03-05T08:30:19.924Z,0.25
2023-03-05T08:32:46.513Z,0.30
2023-03-05T08:35:13.128Z,0.32
2023-03-05T08:37:39.796Z,0.35
2023-03-05T08:40:07.049Z,0.40
2023-03-05T08:42:33.685Z,0.30
2023-03-05T08:45:00.359Z,0.30
2023-03-05T08:47:28.015Z,0.30
2023-03-05T08:49:55.709Z,0.15
2023-03-05T08:52:22.706Z,0.20
2023-03-05T08:54:49.707Z,0.28
2023-03-05T08:57:16.314Z,0.30
2023-03-05T08:59:42.875Z,0.20
2023-03-05T09:02:12.407Z,0.30
2023-03-05T09:04:39.073Z,0.30
2023-03-05T09:07:06.146Z,0.13
2023-03-05T09:09:33.175Z,0.30
2023-03-05T09:12:00.951Z,0.20
2023-03-05T09:14:28.697Z,0.20
2023-03-05T09:16:56.399Z,0.38
2023-03-05T09:19:22.988Z,0.22
2023-03-05T09:21:49.584Z,0.43
2023-03-05T09:24:16.333Z,0.40
2023-03-05T09:26:43.025Z,0.70
2023-03-05T09:29:09.893Z,0.40
2023-03-05T09:31:37.081Z,0.20
2023-03-05T09:34:05.338Z,0.25
2023-03-05T09:36:32.335Z,0.35
2023-03-05T09:38:59.260Z,0.30
2023-03-05T09:41:35.584Z,0.30
2023-03-05T09:44:32.879Z,0.20
2023-03-05T09:47:17.222Z,0.30
2023-03-05T09:49:55.293Z,0.30
2023-03-05T09:52:34.972Z,0.32
2023-03-05T09:55:01.968Z,0.20
2023-03-05T09:57:47.107Z,0.30
2023-03-05T10:00:30.595Z,0.30
2023-03-05T10:03:00.841Z,0.30
2023-03-05T10:05:43.666Z,0.30
2023-03-05T10:08:11.413Z,0.20
2023-03-05T10:10:41.687Z,0.17
2023-03-05T10:13:16.808Z,0.30
2023-03-05T10:15:54.765Z,0.38
2023-03-05T10:18:58.247Z,0.30
2023-03-05T10:21:32.650Z,0.40
2023-03-05T10:24:05.222Z,0.30
2023-03-05T10:26:45.328Z,0.30
2023-03-05T10:29:35.147Z,0.47
2023-03-05T10:32:53.061Z,0.30
2023-03-05T10:35:29.103Z,0.50
2023-03-05T10:38:32.173Z,0.22
2023-03-05T10:41:01.032Z,0.28
2023-03-05T10:43:45.463Z,0.20
2023-03-05T10:46:17.719Z,0.40
2023-03-05T10:48:52.924Z,0.38
2023-03-05T10:51:28.333Z,0.32
2023-03-05T10:54:01.574Z,0.30
2023-03-05T10:56:29.357Z,0.40
2023-03-05T10:58:55.945Z,0.50
2023-03-05T11:01:28.276Z,0.38
2023-03-05T11:04:00.722Z,0.25
2023-03-05T11:06:32.902Z,0.40
2023-03-05T11:09:18.011Z,0.40
2023-03-05T11:11:49.297Z,0.45
2023-03-05T11:14:31.335Z,0.50
2023-03-05T11:16:57.948Z,0.40
2023-03-05T11:19:35.331Z,0.40
2023-03-05T11:22:12.560Z,0.40
2023-03-05T11:24:39.195Z,0.50
2023-03-05T11:27:42.480Z,0.20
2023-03-05T11:30:21.122Z,0.43
2023-03-05T11:32:47.724Z,0.30
2023-03-05T11:35:30.905Z,0.30
2023-03-05T11:38:04.723Z,0.47
2023-03-05T11:40:35.679Z,0.28
2023-03-05T11:43:03.475Z,0.63
2023-03-05T11:45:32.029Z,0.20
2023-03-05T11:48:04.948Z,0.30
2023-03-05T11:50:34.119Z,0.40
2023-03-05T11:53:06.939Z,0.38
2023-03-05T11:55:47.048Z,0.40
2023-03-05T11:58:32.237Z,0.40
2023-03-05T12:01:00.550Z,0.40
2023-03-05T12:03:35.330Z,0.55
2023-03-05T12:06:20.611Z,0.30
2023-03-05T12:08:50.729Z,0.55
2023-03-05T12:11:20.482Z,0.40
2023-03-05T12:13:51.140Z,0.40
2023-03-05T12:16:48.127Z,0.70
2023-03-05T12:19:35.743Z,0.82
2023-03-05T12:22:03.099Z,0.60
2023-03-05T12:24:29.603Z,0.60
2023-03-05T12:27:04.928Z,0.73
2023-03-05T12:29:44.971Z,0.50
2023-03-05T12:32:28.959Z,0.98
2023-03-05T12:35:06.227Z,0.50
2023-03-05T12:37:32.744Z,0.52
2023-03-05T12:40:05.082Z,0.70
2023-03-05T12:42:31.598Z,0.70
2023-03-05T12:45:10.215Z,0.50
2023-03-05T12:47:40.784Z,0.40
2023-03-05T12:50:29.298Z,0.50
2023-03-05T12:53:18.215Z,0.50
2023-03-05T12:55:47.424Z,0.70
2023-03-05T12:58:45.507Z,0.47
2023-03-05T13:01:12.075Z,0.68
2023-03-05T13:03:45.993Z,0.65
2023-03-05T13:06:30.694Z,0.73
2023-03-05T13:09:09.225Z,0.65
2023-03-05T13:11:38.970Z,0.60
2023-03-05T13:14:32.760Z,0.50
2023-03-05T13:16:59.962Z,0.70
2023-03-05T13:19:27.056Z,0.80
2023-03-05T13:22:01.768Z,0.60
2023-03-05T13:24:29.282Z,0.50
2023-03-05T13:26:56.187Z,0.82
2023-03-05T13:29:28.382Z,0.60
2023-03-05T13:32:03.366Z,0.68
2023-03-05T13:34:46.217Z,0.68
2023-03-05T13:37:19.360Z,0.60
2023-03-05T13:39:52.408Z,0.60
2023-03-05T13:42:25.970Z,0.60
2023-03-05T13:44:56.623Z,0.75
2023-03-05T13:47:25.797Z,0.50
2023-03-05T13:49:57.527Z,0.82
2023-03-05T13:52:26.501Z,0.50
2023-03-05T13:54:53.211Z,0.80
2023-03-05T13:57:42.188Z,0.80
2023-03-05T14:00:44.084Z,0.60
2023-03-05T14:03:26.673Z,0.85
2023-03-05T14:05:54.123Z,0.55
2023-03-05T14:08:23.118Z,0.70
2023-03-05T14:10:50.447Z,0.70
2023-03-05T14:13:35.170Z,1.00
2023-03-05T14:16:23.920Z,0.63
2023-03-05T14:18:58.544Z,0.68
2023-03-05T14:21:25.549Z,0.60
2023-03-05T14:23:54.943Z,0.70
2023-03-05T14:26:33.112Z,0.60
2023-03-05T14:29:11.566Z,0.80
2023-03-05T14:32:07.948Z,0.75
2023-03-05T14:34:40.137Z,0.93
2023-03-05T14:37:25.210Z,0.77
2023-03-05T14:39:55.642Z,0.50
2023-03-05T14:42:30.944Z,0.80
2023-03-05T14:45:10.080Z,0.80
2023-03-05T14:47:36.657Z,0.80
2023-03-05T14:50:04.820Z,0.75
2023-03-05T14:52:31.640Z,0.85
2023-03-05T14:54:58.246Z,0.80
2023-03-05T14:57:29.131Z,1.00
2023-03-05T14:59:55.780Z,0.90
2023-03-05T15:02:24.516Z,1.00
2023-03-05T15:04:51.227Z,0.70
2023-03-05T15:07:26.559Z,0.70
2023-03-05T15:09:53.357Z,0.80
2023-03-05T15:12:24.519Z,0.88
2023-03-05T15:14:52.731Z,0.68
2023-03-05T15:17:22.855Z,0.65
2023-03-05T15:19:50.049Z,0.80
2023-03-05T15:22:17.432Z,0.77
2023-03-05T15:24:44.079Z,0.70
2023-03-05T15:27:10.828Z,1.17
2023-03-05T15:29:37.387Z,0.77
2023-03-05T15:32:05.567Z,0.68
2023-03-05T15:34:33.811Z,0.70
2023-03-05T15:37:01.539Z,0.73
2023-03-05T15:39:28.493Z,0.50
2023-03-05T15:41:55.492Z,0.55
2023-03-05T15:44:22.362Z,0.73
2023-03-05T15:46:48.919Z,0.57
2023-03-05T15:49:15.896Z,0.70
2023-03-05T15:51:42.499Z,0.60
2023-03-05T15:54:09.170Z,0.57
2023-03-05T15:56:35.816Z,0.38
2023-03-05T15:59:02.560Z,0.50
2023-03-05T16:01:29.190Z,0.63
2023-03-05T16:03:55.764Z,1.00
2023-03-05T16:06:24.189Z,0.90
2023-03-05T16:08:53.602Z,1.40
2023-03-05T16:11:20.294Z,1.10
2023-03-05T16:13:46.923Z,1.13
2023-03-05T16:16:13.772Z,1.73
2023-03-05T16:18:41.954Z,1.30
2023-03-05T16:21:08.628Z,1.45
2023-03-05T16:23:35.185Z,1.40
2023-03-05T16:26:01.755Z,1.42
2023-03-05T16:28:28.447Z,1.48
2023-03-05T16:30:56.757Z,1.35
2023-03-05T16:33:23.987Z,1.33
2023-03-05T16:35:50.766Z,1.90
2023-03-05T16:38:19.191Z,1.45
2023-03-05T16:41:06.787Z,1.67
2023-03-05T16:43:32.334Z,1.35
2023-03-05T16:45:58.895Z,1.50
2023-03-05T16:48:25.468Z,1.42
2023-03-05T16:50:52.161Z,1.50
2023-03-05T16:53:18.969Z,1.38
2023-03-05T16:55:45.522Z,1.60
2023-03-05T16:58:12.095Z,1.63
2023-03-05T17:00:38.711Z,2.13
2023-03-05T17:03:05.306Z,2.20
2023-03-05T17:05:32.018Z,2.50
2023-03-05T17:07:58.662Z,1.67
2023-03-05T17:10:25.308Z,1.80
2023-03-05T17:12:52.821Z,2.20
2023-03-05T17:15:19.470Z,2.35
2023-03-05T17:17:46.065Z,2.00
2023-03-05T17:20:13.261Z,2.15
2023-03-05T17:22:39.886Z,2.20
2023-03-05T17:25:06.966Z,2.63
2023-03-05T17:27:36.167Z,2.35
2023-03-05T17:30:04.532Z,1.90
2023-03-05T17:32:31.101Z,2.30
2023-03-05T17:34:57.799Z,2.17
2023-03-05T17:37:24.460Z,1.83
2023-03-05T17:39:51.012Z,2.47
2023-03-05T17:42:22.526Z,2.42
2023-03-05T17:44:50.223Z,2.83
2023-03-05T17:47:17.036Z,2.80
2023-03-05T17:49:43.599Z,2.05
2023-03-05T17:52:10.428Z,1.95
2023-03-05T17:54:36.970Z,2.45
2023-03-05T17:57:03.549Z,2.70
2023-03-05T17:59:30.102Z,2.30
2023-03-05T18:01:56.661Z,3.00
2023-03-05T18:04:23.423Z,2.70
2023-03-05T18:06:50.054Z,3.10
2023-03-05T18:09:16.612Z,2.78
2023-03-05T18:11:43.196Z,2.95
2023-03-05T18:14:09.781Z,3.42
2023-03-05T18:16:36.941Z,3.60
2023-03-05T18:19:03.639Z,3.05
2023-03-05T18:21:30.180Z,2.45
2023-03-05T18:23:56.727Z,3.17
2023-03-05T18:26:23.402Z,2.80
2023-03-05T18:28:49.959Z,2.50
2023-03-05T18:31:16.519Z,2.35
2023-03-05T18:33:43.124Z,2.55
2023-03-05T18:36:10.975Z,2.20
2023-03-05T18:38:38.484Z,2.00
2023-03-05T18:41:05.474Z,2.58
2023-03-05T18:43:32.080Z,2.40
2023-03-05T18:45:59.083Z,2.55
2023-03-05T18:48:25.820Z,2.38
2023-03-05T18:50:53.728Z,2.90
2023-03-05T18:53:21.692Z,2.40
2023-03-05T18:55:49.708Z,2.15
2023-03-05T18:58:17.623Z,1.95
2023-03-05T19:00:46.908Z,1.90
2023-03-05T19:03:14.633Z,1.92
2023-03-05T19:05:41.703Z,2.05
2023-03-05T19:08:08.581Z,1.90
2023-03-05T19:10:35.422Z,2.15
2023-03-05T19:13:39.700Z,2.20
2023-03-05T19:18:43.847Z,1.95
2023-03-05T19:23:36.910Z,1.67
2023-03-05T19:26:04.059Z,1.48
2023-03-05T19:28:30.653Z,1.42
2023-03-05T19:30:57.401Z,1.70
2023-03-05T19:33:25.038Z,1.73
2023-03-05T19:35:51.745Z,1.90
2023-03-05T19:38:18.446Z,1.67
2023-03-05T19:40:45.162Z,1.65
2023-03-05T19:43:11.848Z,1.60
2023-03-05T19:45:38.452Z,1.33
2023-03-05T19:48:05.503Z,1.52
2023-03-05T19:50:34.360Z,1.23
2023-03-05T19:53:01.186Z,1.52
2023-03-05T19:55:27.769Z,1.10
2023-03-05T19:57:54.364Z,1.40
2023-03-05T20:00:21.331Z,1.27
2023-03-05T20:02:48.703Z,1.35
2023-03-05T20:05:15.614Z,1.60
2023-03-05T20:07:42.190Z,1.40
2023-03-05T20:10:09.457Z,1.25
2023-03-05T20:12:36.418Z,1.60
2023-03-05T20:15:03.233Z,1.23
2023-03-05T20:17:29.844Z,1.25
2023-03-05T20:19:59.007Z,1.30
2023-03-05T20:22:25.682Z,1.15
2023-03-05T20:24:52.267Z,1.20
2023-03-05T20:27:18.814Z,0.88
2023-03-05T20:29:45.809Z,1.10
2023-03-05T20:32:12.442Z,1.10
2023-03-05T20:34:39.101Z,1.20
2023-03-05T20:37:05.976Z,1.00
2023-03-05T20:39:32.535Z,1.13
2023-03-05T20:41:59.242Z,1.13
2023-03-05T20:44:25.841Z,1.00
2023-03-05T20:47:02.546Z,0.82
2023-03-05T20:49:29.211Z,1.00
2023-03-05T20:51:55.815Z,1.20
2023-03-05T20:54:23.983Z,1.17
2023-03-05T20:56:50.613Z,0.90
2023-03-05T20:59:17.648Z,1.20
2023-03-05T21:01:44.291Z,0.80
2023-03-05T21:04:11.667Z,0.90
2023-03-05T21:06:38.574Z,1.23
2023-03-05T21:09:05.371Z,0.90
2023-03-05T21:11:32.293Z,1.05
2023-03-05T21:13:59.369Z,1.05
2023-03-05T21:16:27.224Z,1.00
2023-03-05T21:18:55.855Z,1.10
2023-03-05T21:21:22.625Z,0.80
2023-03-05T21:23:49.211Z,1.00
2023-03-05T21:26:15.858Z,1.05
2023-03-05T21:28:42.504Z,0.82
2023-03-05T21:31:14.295Z,1.23
2023-03-05T21:33:41.085Z,1.05
2023-03-05T21:36:07.856Z,1.02
2023-03-05T21:38:34.819Z,0.95
2023-03-05T21:41:02.222Z,0.73
2023-03-05T21:43:31.133Z,1.00
2023-03-05T21:45:58.572Z,0.82
2023-03-05T21:48:25.451Z,0.95
2023-03-05T21:50:52.710Z,0.70
2023-03-05T21:53:19.887Z,0.80
2023-03-05T21:56:02.814Z,0.70
2023-03-05T21:58:33.624Z,1.00
2023-03-05T22:01:00.395Z,0.80
2023-03-05T22:03:27.613Z,0.50
2023-03-05T22:05:54.446Z,0.70
2023-03-05T22:08:22.205Z,0.52
2023-03-05T22:10:49.030Z,0.90
2023-03-05T22:13:17.727Z,0.63
2023-03-05T22:15:45.258Z,0.68
2023-03-05T22:18:13.355Z,0.80
2023-03-05T22:20:39.971Z,0.50
2023-03-05T22:23:06.636Z,0.60
2023-03-05T22:25:33.387Z,0.60
2023-03-05T22:27:59.985Z,0.60
2023-03-05T22:30:26.580Z,0.75
2023-03-05T22:32:53.320Z,0.75
2023-03-05T22:35:19.994Z,0.55
2023-03-05T22:37:46.571Z,0.57
2023-03-05T22:40:15.976Z,0.60
2023-03-05T22:42:44.214Z,0.50
2023-03-05T22:45:12.493Z,0.70
2023-03-05T22:47:39.124Z,0.60
2023-03-05T22:50:06.646Z,0.70
2023-03-05T22:52:33.216Z,0.70
2023-03-05T22:55:03.046Z,0.70
2023-03-05T22:57:29.758Z,0.50
2023-03-05T22:59:56.355Z,0.60
2023-03-05T23:02:22.932Z,0.50
2023-03-05T23:04:53.093Z,0.60
2023-03-05T23:07:24.607Z,0.63
2023-03-05T23:10:15.236Z,0.50
2023-03-05T23:12:46.101Z,0.50
2023-03-05T23:15:15.139Z,0.60
2023-03-05T23:17:41.729Z,0.50
2023-03-05T23:20:10.302Z,0.70
2023-03-05T23:22:37.791Z,0.50
2023-03-05T23:25:04.661Z,0.50
2023-03-05T23:27:31.233Z,0.50
2023-03-05T23:30:21.515Z,0.60
2023-03-05T23:33:04.220Z,0.50
2023-03-05T23:35:39.444Z,0.45
2023-03-05T23:38:09.789Z,0.40
2023-03-05T23:40:39.264Z,0.50
2023-03-05T23:43:05.830Z,0.60
2023-03-05T23:45:33.161Z,0.50
2023-03-05T23:47:59.872Z,0.60
2023-03-05T23:50:32.225Z,0.50
2023-03-05T23:53:01.856Z,0.40
2023-03-05T23:55:32.453Z,0.60
2023-03-05T23:57:59.166Z,0.40
